createdAt,value
2023-04-29T00:00:20.964Z,57.04
2023-04-29T00:02:49.303Z,57.27
2023-04-29T00:05:18.280Z,57.64
2023-04-29T00:07:48.016Z,57.07
2023-04-29T00:10:16.785Z,57.53
2023-04-29T00:12:44.806Z,56.83
2023-04-29T00:15:13.304Z,56.57
2023-04-29T00:17:50.862Z,56.68
2023-04-29T00:20:19.083Z,56.86
2023-04-29T00:22:49.488Z,56.40
2023-04-29T00:25:17.913Z,56.96
2023-04-29T00:27:45.928Z,56.78
2023-04-29T00:30:14.521Z,56.78
2023-04-29T00:32:43.808Z,57.10
2023-04-29T00:35:12.936Z,57.08
2023-04-29T00:37:41.214Z,56.86
2023-04-29T00:40:15.335Z,56.89
2023-04-29T00:42:43.825Z,57.03
2023-04-29T00:45:12.857Z,57.30
2023-04-29T00:47:40.832Z,57.56
2023-04-29T00:50:10.120Z,57.17
2023-04-29T00:52:39.268Z,57.39
2023-04-29T00:55:10.156Z,57.00
2023-04-29T00:57:39.166Z,56.79
2023-04-29T01:00:10.946Z,57.07
2023-04-29T01:02:39.545Z,57.00
2023-04-29T01:05:08.075Z,56.86
2023-04-29T01:07:43.421Z,56.92
2023-04-29T01:10:20.658Z,57.43
2023-04-29T01:12:59.826Z,57.56
2023-04-29T01:15:34.071Z,57.67
2023-04-29T01:18:06.883Z,58.02
2023-04-29T01:20:37.901Z,57.73
2023-04-29T01:23:06.179Z,57.54
2023-04-29T01:25:36.023Z,57.78
2023-04-29T01:28:15.664Z,57.72
2023-04-29T01:30:51.723Z,58.96
2023-04-29T01:33:27.129Z,58.75
2023-04-29T01:36:08.542Z,58.43
2023-04-29T01:38:42.078Z,58.75
2023-04-29T01:41:16.628Z,57.62
2023-04-29T01:43:51.015Z,58.44
2023-04-29T01:46:20.376Z,58.47
2023-04-29T01:48:48.769Z,57.78
2023-04-29T01:51:17.834Z,57.87
2023-04-29T01:53:45.930Z,57.33
2023-04-29T01:56:15.763Z,58.09
2023-04-29T01:58:44.533Z,57.69
2023-04-29T02:01:12.956Z,57.76
2023-04-29T02:03:41.715Z,57.63
2023-04-29T02:06:10.387Z,57.61
2023-04-29T02:08:38.463Z,58.25
2023-04-29T02:11:07.931Z,58.46
2023-04-29T02:13:37.498Z,57.79
2023-04-29T02:16:09.861Z,57.83
2023-04-29T02:18:38.848Z,58.35
2023-04-29T02:21:07.625Z,57.19
2023-04-29T02:23:36.241Z,57.37
2023-04-29T02:26:06.321Z,57.61
2023-04-29T02:28:34.811Z,57.69
2023-04-29T02:31:04.286Z,57.47
2023-04-29T02:33:33.169Z,57.79
2023-04-29T02:36:01.666Z,57.30
2023-04-29T02:38:29.846Z,56.74
2023-04-29T02:40:58.185Z,56.98
2023-04-29T02:43:26.474Z,57.37
2023-04-29T02:45:54.528Z,57.13
2023-04-29T02:48:24.174Z,57.54
2023-04-29T02:51:11.267Z,57.85
2023-04-29T02:53:58.622Z,57.84
2023-04-29T02:56:26.986Z,58.22
2023-04-29T02:58:55.078Z,57.55
2023-04-29T03:01:24.437Z,57.95
2023-04-29T03:03:54.969Z,58.57
2023-04-29T03:06:23.452Z,58.25
2023-04-29T03:08:52.624Z,57.73
2023-04-29T03:11:21.194Z,58.43
2023-04-29T03:13:49.250Z,58.11
2023-04-29T03:16:18.174Z,58.51
2023-04-29T03:18:46.990Z,58.17
2023-04-29T03:21:16.319Z,58.33
2023-04-29T03:23:44.891Z,58.09
2023-04-29T03:26:14.723Z,57.76
2023-04-29T03:28:42.926Z,58.22
2023-04-29T03:31:12.320Z,58.40
2023-04-29T03:33:40.655Z,58.39
2023-04-29T03:36:09.549Z,58.25
2023-04-29T03:38:39.465Z,58.38
2023-04-29T03:41:07.958Z,58.39
2023-04-29T03:43:36.422Z,58.07
2023-04-29T03:46:04.529Z,58.18
2023-04-29T03:48:33.102Z,58.34
2023-04-29T03:51:02.027Z,58.04
2023-04-29T03:53:30.282Z,57.96
2023-04-29T03:56:00.178Z,58.14
2023-04-29T03:58:28.143Z,58.21
2023-04-29T04:00:56.407Z,58.26
2023-04-29T04:03:27.720Z,58.12
2023-04-29T04:05:56.281Z,58.06
2023-04-29T04:08:24.961Z,59.07
2023-04-29T04:10:53.158Z,58.44
2023-04-29T04:13:23.405Z,58.36
2023-04-29T04:15:52.272Z,58.70
2023-04-29T04:18:20.654Z,58.41
2023-04-29T04:20:48.756Z,59.16
2023-04-29T04:23:17.123Z,58.90
2023-04-29T04:25:48.988Z,58.97
2023-04-29T04:28:18.089Z,59.32
2023-04-29T04:30:48.765Z,58.94
2023-04-29T04:33:17.012Z,58.92
2023-04-29T04:35:47.005Z,58.96
2023-04-29T04:38:15.236Z,59.04
2023-04-29T04:40:43.744Z,59.01
2023-04-29T04:43:12.328Z,58.80
2023-04-29T04:45:41.096Z,58.72
2023-04-29T04:48:10.578Z,59.10
2023-04-29T04:50:40.230Z,58.85
2023-04-29T04:53:08.478Z,59.22
2023-04-29T04:55:39.004Z,58.63
2023-04-29T04:58:09.648Z,58.47
2023-04-29T05:00:37.964Z,59.21
2023-04-29T05:03:06.152Z,59.36
2023-04-29T05:05:35.861Z,59.88
2023-04-29T05:08:04.692Z,60.95
2023-04-29T05:10:36.797Z,60.21
2023-04-29T05:13:05.822Z,60.59
2023-04-29T05:15:36.082Z,60.46
2023-04-29T05:18:05.033Z,60.89
2023-04-29T05:20:33.477Z,61.30
2023-04-29T05:23:03.318Z,60.84
2023-04-29T05:25:32.212Z,60.05
2023-04-29T05:28:00.891Z,60.20
2023-04-29T05:30:30.534Z,60.38
2023-04-29T05:33:02.221Z,60.29
2023-04-29T05:35:31.156Z,60.53
2023-04-29T05:37:59.830Z,60.89
2023-04-29T05:40:29.745Z,60.93
2023-04-29T05:42:58.293Z,60.96
2023-04-29T05:45:26.688Z,61.04
2023-04-29T05:47:57.070Z,61.37
2023-04-29T05:50:25.828Z,60.01
2023-04-29T05:52:54.739Z,59.86
2023-04-29T05:55:23.427Z,60.75
2023-04-29T05:57:53.094Z,61.03
2023-04-29T06:00:22.389Z,60.99
2023-04-29T06:02:58.680Z,61.25
2023-04-29T06:05:28.965Z,60.23
2023-04-29T06:07:58.405Z,60.92
2023-04-29T06:10:29.517Z,60.64
2023-04-29T06:12:59.548Z,60.78
2023-04-29T06:15:28.485Z,60.49
2023-04-29T06:17:57.409Z,60.06
2023-04-29T06:20:26.362Z,59.80
2023-04-29T06:22:54.862Z,59.79
2023-04-29T06:25:22.938Z,59.51
2023-04-29T06:27:51.269Z,58.90
2023-04-29T06:30:20.951Z,59.59
2023-04-29T06:32:49.177Z,59.53
2023-04-29T06:35:18.222Z,59.11
2023-04-29T06:37:47.656Z,58.52
2023-04-29T06:40:17.386Z,58.30
2023-04-29T06:42:47.518Z,58.57
2023-04-29T06:45:17.727Z,59.55
2023-04-29T06:47:48.013Z,59.24
2023-04-29T06:50:19.254Z,60.50
2023-04-29T06:52:47.803Z,60.63
2023-04-29T06:55:16.386Z,60.74
2023-04-29T06:57:44.585Z,60.43
2023-04-29T07:00:16.018Z,60.03
2023-04-29T07:02:44.206Z,60.20
2023-04-29T07:05:14.165Z,60.45
2023-04-29T07:07:44.368Z,60.75
2023-04-29T07:10:12.690Z,59.72
2023-04-29T07:12:40.899Z,59.55
2023-04-29T07:15:09.708Z,59.49
2023-04-29T07:17:38.232Z,60.43
2023-04-29T07:20:07.823Z,60.93
2023-04-29T07:22:37.426Z,61.35
2023-04-29T07:25:06.448Z,61.86
2023-04-29T07:27:35.712Z,62.08
2023-04-29T07:30:04.008Z,61.26
2023-04-29T07:32:32.734Z,60.94
2023-04-29T07:35:03.669Z,62.48
2023-04-29T07:37:31.843Z,61.79
2023-04-29T07:40:01.928Z,62.53
2023-04-29T07:42:30.079Z,62.31
2023-04-29T07:44:58.654Z,61.65
2023-04-29T07:47:27.165Z,62.47
2023-04-29T07:49:55.357Z,61.39
2023-04-29T07:52:23.548Z,62.37
2023-04-29T07:54:52.174Z,61.89
2023-04-29T07:57:22.047Z,61.31
2023-04-29T07:59:52.854Z,62.83
2023-04-29T08:02:22.151Z,62.25
2023-04-29T08:04:52.198Z,60.61
2023-04-29T08:07:20.609Z,60.42
2023-04-29T08:09:48.674Z,60.61
2023-04-29T08:12:17.318Z,60.54
2023-04-29T08:14:46.777Z,60.03
2023-04-29T08:17:14.756Z,60.03
2023-04-29T08:19:43.150Z,58.66
2023-04-29T08:22:12.287Z,58.87
2023-04-29T08:24:41.700Z,59.16
2023-04-29T08:27:10.138Z,58.52
2023-04-29T08:29:38.439Z,58.69
2023-04-29T08:32:08.239Z,58.47
2023-04-29T08:34:37.730Z,58.18
2023-04-29T08:37:05.924Z,58.10
2023-04-29T08:39:34.008Z,58.57
2023-04-29T08:42:09.657Z,58.95
2023-04-29T08:44:37.922Z,58.61
2023-04-29T08:47:07.770Z,58.87
2023-04-29T08:49:38.110Z,59.70
2023-04-29T08:52:06.781Z,59.54
2023-04-29T08:54:36.187Z,59.48
2023-04-29T08:57:06.876Z,59.67
2023-04-29T08:59:35.272Z,58.71
2023-04-29T09:02:04.499Z,57.43
2023-04-29T09:04:41.841Z,57.92
2023-04-29T09:07:13.535Z,57.45
2023-04-29T09:09:42.673Z,57.62
2023-04-29T09:12:11.017Z,57.30
2023-04-29T09:14:39.107Z,57.51
2023-04-29T09:17:07.100Z,58.41
2023-04-29T09:19:37.834Z,58.03
2023-04-29T09:22:07.326Z,57.94
2023-04-29T09:24:35.702Z,58.44
2023-04-29T09:27:04.517Z,57.91
2023-04-29T09:29:34.107Z,58.16
2023-04-29T09:32:02.469Z,59.36
2023-04-29T09:34:35.744Z,59.69
2023-04-29T09:37:06.110Z,59.23
2023-04-29T09:39:40.255Z,59.30
2023-04-29T09:42:09.756Z,59.29
2023-04-29T09:44:37.923Z,59.27
2023-04-29T09:47:07.481Z,59.32
2023-04-29T09:49:39.733Z,59.39
2023-04-29T09:52:11.026Z,59.06
2023-04-29T09:54:41.206Z,59.48
2023-04-29T09:57:10.772Z,58.64
2023-04-29T09:59:40.318Z,58.77
2023-04-29T10:02:15.441Z,58.58
2023-04-29T10:04:46.916Z,58.58
2023-04-29T10:07:17.973Z,58.48
2023-04-29T10:09:47.781Z,58.40
2023-04-29T10:12:17.575Z,59.12
2023-04-29T10:14:51.930Z,58.60
2023-04-29T10:17:27.680Z,58.44
2023-04-29T10:20:06.589Z,58.41
2023-04-29T10:22:46.940Z,58.23
2023-04-29T10:25:17.154Z,58.48
2023-04-29T10:27:46.567Z,58.65
2023-04-29T10:30:16.272Z,59.07
2023-04-29T10:32:50.921Z,58.65
2023-04-29T10:35:22.879Z,59.77
2023-04-29T10:37:53.657Z,58.32
2023-04-29T10:40:25.811Z,58.34
2023-04-29T10:42:55.635Z,57.75
2023-04-29T10:45:26.995Z,57.77
2023-04-29T10:48:15.470Z,57.45
2023-04-29T10:51:04.381Z,57.62
2023-04-29T10:53:34.350Z,58.17
2023-04-29T10:56:10.892Z,57.49
2023-04-29T10:58:44.066Z,57.88
2023-04-29T11:01:14.174Z,57.64
2023-04-29T11:03:50.867Z,57.83
2023-04-29T11:06:19.387Z,58.30
2023-04-29T11:08:48.772Z,58.18
2023-04-29T11:11:16.747Z,58.22
2023-04-29T11:13:47.855Z,57.88
2023-04-29T11:16:15.906Z,57.31
2023-04-29T11:19:07.349Z,57.34
2023-04-29T11:21:36.191Z,57.62
2023-04-29T11:24:07.560Z,57.08
2023-04-29T11:26:35.964Z,56.85
2023-04-29T11:29:06.191Z,56.72
2023-04-29T11:31:34.783Z,56.83
2023-04-29T11:34:06.947Z,56.53
2023-04-29T11:36:36.201Z,56.46
2023-04-29T11:39:06.391Z,56.10
2023-04-29T11:41:35.829Z,56.07
2023-04-29T11:44:05.091Z,56.15
2023-04-29T11:46:33.166Z,55.87
2023-04-29T11:49:01.468Z,55.60
2023-04-29T11:51:29.849Z,55.39
2023-04-29T11:53:58.809Z,54.93
2023-04-29T11:56:28.332Z,54.05
2023-04-29T11:58:57.738Z,55.25
2023-04-29T12:01:27.026Z,55.12
2023-04-29T12:03:59.298Z,54.75
2023-04-29T12:06:29.221Z,54.46
2023-04-29T12:09:00.115Z,54.01
2023-04-29T12:11:29.824Z,52.92
2023-04-29T12:13:58.673Z,53.42
2023-04-29T12:16:29.504Z,53.74
2023-04-29T12:18:58.818Z,53.19
2023-04-29T12:21:27.497Z,53.22
2023-04-29T12:23:56.022Z,53.32
2023-04-29T12:26:24.945Z,52.97
2023-04-29T12:28:58.896Z,52.77
2023-04-29T12:31:34.786Z,53.02
2023-04-29T12:34:06.938Z,52.46
2023-04-29T12:36:37.789Z,53.30
2023-04-29T12:39:10.684Z,53.29
2023-04-29T12:41:40.982Z,53.53
2023-04-29T12:44:11.803Z,53.77
2023-04-29T12:46:41.619Z,53.61
2023-04-29T12:49:10.150Z,53.18
2023-04-29T12:51:38.329Z,53.25
2023-04-29T12:54:07.440Z,53.20
2023-04-29T12:56:35.514Z,53.00
2023-04-29T12:59:08.410Z,53.08
2023-04-29T13:01:38.223Z,52.71
2023-04-29T13:04:09.141Z,52.86
2023-04-29T13:06:40.997Z,52.90
2023-04-29T13:09:17.085Z,53.12
2023-04-29T13:11:47.260Z,52.91
2023-04-29T13:14:15.738Z,52.79
2023-04-29T13:16:45.521Z,52.65
2023-04-29T13:19:30.516Z,51.91
2023-04-29T13:22:02.291Z,52.55
2023-04-29T13:24:30.706Z,52.36
2023-04-29T13:26:59.202Z,52.63
2023-04-29T13:29:27.961Z,52.44
2023-04-29T13:31:57.697Z,51.83
2023-04-29T13:34:25.846Z,51.54
2023-04-29T13:36:54.126Z,51.71
2023-04-29T13:39:23.353Z,51.34
2023-04-29T13:41:51.609Z,50.50
2023-04-29T13:44:29.504Z,51.00
2023-04-29T13:47:05.290Z,50.05
2023-04-29T13:52:53.884Z,49.66
2023-04-29T13:58:13.283Z,49.97
2023-04-29T14:00:38.326Z,50.59
2023-04-29T14:03:07.596Z,48.97
2023-04-29T14:05:36.113Z,49.78
2023-04-29T14:08:04.659Z,49.32
2023-04-29T14:10:42.386Z,49.77
2023-04-29T14:13:10.818Z,49.78
2023-04-29T14:15:38.864Z,50.02
2023-04-29T14:18:09.613Z,49.47
2023-04-29T14:20:38.176Z,49.71
2023-04-29T14:23:06.388Z,49.99
2023-04-29T14:25:34.570Z,49.67
2023-04-29T14:28:02.850Z,49.92
2023-04-29T14:30:31.018Z,49.15
2023-04-29T14:32:59.043Z,49.30
2023-04-29T14:35:29.058Z,48.95
2023-04-29T14:37:57.033Z,48.89
2023-04-29T14:40:24.969Z,49.51
2023-04-29T14:42:53.298Z,49.28
2023-04-29T14:45:21.365Z,49.29
2023-04-29T14:47:49.421Z,49.43
2023-04-29T14:50:18.377Z,49.47
2023-04-29T14:52:47.911Z,48.97
2023-04-29T14:55:16.779Z,49.33
2023-04-29T14:57:45.172Z,48.82
2023-04-29T15:00:15.112Z,49.46
2023-04-29T15:02:43.160Z,49.55
2023-04-29T15:05:11.568Z,48.36
2023-04-29T15:07:40.236Z,49.45
2023-04-29T15:10:11.121Z,48.28
2023-04-29T15:12:39.497Z,49.35
2023-04-29T15:15:09.393Z,49.15
2023-04-29T15:17:37.573Z,49.29
2023-04-29T15:20:07.483Z,49.17
2023-04-29T15:22:35.591Z,48.80
2023-04-29T15:25:03.714Z,49.22
2023-04-29T15:27:34.666Z,49.09
2023-04-29T15:30:02.980Z,48.62
2023-04-29T15:32:32.680Z,48.98
2023-04-29T15:35:01.794Z,49.03
2023-04-29T15:37:30.724Z,48.26
2023-04-29T15:40:00.758Z,48.82
2023-04-29T15:42:29.727Z,48.70
2023-04-29T15:44:59.117Z,48.52
2023-04-29T15:47:27.602Z,48.67
2023-04-29T15:49:56.752Z,48.93
2023-04-29T15:52:25.050Z,48.55
2023-04-29T15:54:53.348Z,48.15
2023-04-29T15:57:21.415Z,48.54
2023-04-29T15:59:49.394Z,48.24
2023-04-29T16:02:20.371Z,48.28
2023-04-29T16:04:48.749Z,48.06
2023-04-29T16:07:17.940Z,48.22
2023-04-29T16:09:46.120Z,48.32
2023-04-29T16:12:14.549Z,48.23
2023-04-29T16:14:42.681Z,47.65
2023-04-29T16:17:10.665Z,48.36
2023-04-29T16:19:40.353Z,48.11
2023-04-29T16:22:08.410Z,48.55
2023-04-29T16:24:36.628Z,48.40
2023-04-29T16:27:04.960Z,48.53
2023-04-29T16:29:33.012Z,48.78
2023-04-29T16:32:01.011Z,48.56
2023-04-29T16:34:29.345Z,48.40
2023-04-29T16:36:58.860Z,48.85
2023-04-29T16:39:26.927Z,48.36
2023-04-29T16:41:55.191Z,48.69
2023-04-29T16:44:23.192Z,48.41
2023-04-29T16:46:51.523Z,49.09
2023-04-29T16:49:25.502Z,48.58
2023-04-29T16:51:54.521Z,48.36
2023-04-29T16:54:24.587Z,48.78
2023-04-29T16:56:52.616Z,49.02
2023-04-29T16:59:20.605Z,48.81
2023-04-29T17:01:49.065Z,48.85
2023-04-29T17:04:17.273Z,48.61
2023-04-29T17:06:45.657Z,48.67
2023-04-29T17:09:15.762Z,48.59
2023-04-29T17:11:45.113Z,48.46
2023-04-29T17:14:13.432Z,48.60
2023-04-29T17:16:41.720Z,48.79
2023-04-29T17:19:10.199Z,48.67
2023-04-29T17:21:38.584Z,48.81
2023-04-29T17:24:07.097Z,48.68
2023-04-29T17:26:35.111Z,48.83
2023-04-29T17:29:05.035Z,48.60
2023-04-29T17:31:45.258Z,48.63
2023-04-29T17:34:19.605Z,48.54
2023-04-29T17:36:47.903Z,48.48
2023-04-29T17:39:16.574Z,48.69
2023-04-29T17:41:44.729Z,48.82
2023-04-29T17:44:14.092Z,48.97
2023-04-29T17:46:44.588Z,49.09
2023-04-29T17:49:14.556Z,48.94
2023-04-29T17:51:47.166Z,48.72
2023-04-29T17:54:16.102Z,48.86
2023-04-29T17:56:44.373Z,49.36
2023-04-29T17:59:14.734Z,49.17
2023-04-29T18:01:46.033Z,49.30
2023-04-29T18:04:14.469Z,49.38
2023-04-29T18:06:42.749Z,50.03
2023-04-29T18:09:10.807Z,50.08
2023-04-29T18:11:42.287Z,49.83
2023-04-29T18:14:10.889Z,50.34
2023-04-29T18:16:40.572Z,49.87
2023-04-29T18:19:09.783Z,49.89
2023-04-29T18:21:40.794Z,50.08
2023-04-29T18:24:09.179Z,49.99
2023-04-29T18:26:37.270Z,49.94
2023-04-29T18:29:05.337Z,50.03
2023-04-29T18:31:33.679Z,49.85
2023-04-29T18:34:03.376Z,50.09
2023-04-29T18:36:32.152Z,50.78
2023-04-29T18:39:00.426Z,50.56
2023-04-29T18:41:28.447Z,50.73
2023-04-29T18:43:56.488Z,50.52
2023-04-29T18:46:24.894Z,50.32
2023-04-29T18:48:52.959Z,50.40
2023-04-29T18:51:22.727Z,50.89
2023-04-29T18:53:51.047Z,50.46
2023-04-29T18:56:19.092Z,50.59
2023-04-29T18:58:47.141Z,50.91
2023-04-29T19:01:15.574Z,50.74
2023-04-29T19:03:43.548Z,50.50
2023-04-29T19:06:11.531Z,50.57
2023-04-29T19:08:41.128Z,50.65
2023-04-29T19:11:09.226Z,51.29
2023-04-29T19:13:37.283Z,50.48
2023-04-29T19:16:06.046Z,51.13
2023-04-29T19:18:34.036Z,50.98
2023-04-29T19:21:02.154Z,51.22
2023-04-29T19:23:30.366Z,50.60
2023-04-29T19:25:59.801Z,50.74
2023-04-29T19:28:27.862Z,51.08
2023-04-29T19:30:56.266Z,50.67
2023-04-29T19:33:24.348Z,50.91
2023-04-29T19:35:52.428Z,50.78
2023-04-29T19:38:21.618Z,50.94
2023-04-29T19:40:49.912Z,50.60
2023-04-29T19:43:19.231Z,50.94
2023-04-29T19:45:47.601Z,50.71
2023-04-29T19:48:15.578Z,50.99
2023-04-29T19:50:43.563Z,50.54
2023-04-29T19:53:12.501Z,50.54
2023-04-29T19:55:40.957Z,50.95
2023-04-29T19:58:09.038Z,50.72
2023-04-29T20:00:38.869Z,50.76
2023-04-29T20:03:07.153Z,50.90
2023-04-29T20:05:35.181Z,50.38
2023-04-29T20:08:03.251Z,50.52
2023-04-29T20:10:31.760Z,50.53
2023-04-29T20:12:59.933Z,50.30
2023-04-29T20:15:28.505Z,50.73
2023-04-29T20:17:58.217Z,51.02
2023-04-29T20:20:26.950Z,51.00
2023-04-29T20:22:58.010Z,50.82
2023-04-29T20:25:27.156Z,50.72
2023-04-29T20:27:56.662Z,50.62
2023-04-29T20:30:25.868Z,50.51
2023-04-29T20:32:54.317Z,50.45
2023-04-29T20:35:24.549Z,50.52
2023-04-29T20:37:52.564Z,50.88
2023-04-29T20:40:21.133Z,50.70
2023-04-29T20:42:49.144Z,50.69
2023-04-29T20:45:19.616Z,50.53
2023-04-29T20:47:48.055Z,50.54
2023-04-29T20:50:16.412Z,50.76
2023-04-29T20:52:49.214Z,51.06
2023-04-29T20:55:17.907Z,51.28
2023-04-29T20:57:45.972Z,50.80
2023-04-29T21:00:17.358Z,50.88
2023-04-29T21:02:46.142Z,51.46
2023-04-29T21:05:14.621Z,51.43
2023-04-29T21:07:42.686Z,51.00
2023-04-29T21:10:13.478Z,51.30
2023-04-29T21:12:41.810Z,51.07
2023-04-29T21:15:10.256Z,51.96
2023-04-29T21:17:38.504Z,51.97
2023-04-29T21:20:08.735Z,51.69
2023-04-29T21:22:36.739Z,51.42
2023-04-29T21:25:06.478Z,52.10
2023-04-29T21:27:36.436Z,51.63
2023-04-29T21:30:05.836Z,52.49
2023-04-29T21:32:34.032Z,51.73
2023-04-29T21:35:02.112Z,51.66
2023-04-29T21:37:30.838Z,52.60
2023-04-29T21:40:00.281Z,52.69
2023-04-29T21:42:28.554Z,51.90
2023-04-29T21:45:00.168Z,52.53
2023-04-29T21:47:28.973Z,52.17
2023-04-29T21:49:57.600Z,52.58
2023-04-29T21:52:25.674Z,53.30
2023-04-29T21:54:53.661Z,53.10
2023-04-29T21:57:28.946Z,54.14
2023-04-29T22:00:19.063Z,54.69
2023-04-29T22:02:47.785Z,54.34
2023-04-29T22:05:16.038Z,53.41
2023-04-29T22:07:44.114Z,54.31
2023-04-29T22:10:12.628Z,54.13
2023-04-29T22:12:40.705Z,53.96
2023-04-29T22:15:26.941Z,54.18
2023-04-29T22:17:56.914Z,53.96
2023-04-29T22:20:25.373Z,53.49
2023-04-29T22:22:53.500Z,53.30
2023-04-29T22:25:22.143Z,53.23
2023-04-29T22:27:50.284Z,52.87
2023-04-29T22:30:20.737Z,52.94
2023-04-29T22:32:49.349Z,53.21
2023-04-29T22:35:17.618Z,52.97
2023-04-29T22:37:45.725Z,53.03
2023-04-29T22:40:15.122Z,52.92
2023-04-29T22:42:43.209Z,52.96
2023-04-29T22:45:13.357Z,53.13
2023-04-29T22:47:43.299Z,53.43
2023-04-29T22:50:12.274Z,53.08
2023-04-29T22:52:40.498Z,53.37
2023-04-29T22:55:09.799Z,53.18
2023-04-29T22:57:38.022Z,53.18
2023-04-29T23:00:07.293Z,53.07
2023-04-29T23:02:35.746Z,53.08
2023-04-29T23:05:06.662Z,52.90
2023-04-29T23:07:35.170Z,53.06
2023-04-29T23:10:03.294Z,53.18
2023-04-29T23:12:31.464Z,53.18
2023-04-29T23:14:59.774Z,53.10
2023-04-29T23:17:27.777Z,53.13
2023-04-29T23:19:55.966Z,53.17
2023-04-29T23:22:26.156Z,53.15
2023-04-29T23:24:54.270Z,53.17
2023-04-29T23:27:22.270Z,53.28
2023-04-29T23:29:50.526Z,53.49
2023-04-29T23:32:19.474Z,53.41
2023-04-29T23:34:48.352Z,53.37
2023-04-29T23:37:16.807Z,53.34
2023-04-29T23:39:46.218Z,53.35
2023-04-29T23:42:14.927Z,53.44
2023-04-29T23:44:43.213Z,53.36
2023-04-29T23:47:11.514Z,53.37
2023-04-29T23:49:39.678Z,53.43
2023-04-29T23:52:10.248Z,53.40
2023-04-29T23:54:38.607Z,54.00
2023-04-29T23:57:08.231Z,54.13
2023-04-29T23:59:36.631Z,54.22
